Latest Weather Observations for Loxton

IDS60801

Issued at 9:01 pm CST Sunday 30 August 2015 (issued every 30 minutes, with the page automatically refreshed every 10 minutes)

About weather observations | Map of weather stations | Latest weather observations for SA | Other Formats
Station Details ID: 024024 Name: LOXTON RESEARCH CENTRE Lat: -34.44 Lon: 140.60 Height: 30.1 m
Data from the previous 72 hours. | See also: Recent months at Loxton
Date/Time
CST
Temp
°C
App
Temp
°C
Dew
Point
Rel
Hum
%
Delta-T
°C
Wind Press
QNH
hPa
Press
MSL
hPa
Rain
since 9 am
mm
Dir
 
Spd
km/h
Gust
km/h
Spd
kts
Gust
kts
30/09:00pm 4.3 1.6 0.0 73 1.6 S 4 9 2 5 1024.0 1024.0 0.0
30/08:30pm 4.6 2.6 -0.2 71 1.8 CALM 0 0 0 0 1023.8 1023.8 0.0
30/08:00pm 5.2 3.3 0.8 73 1.7 CALM 0 0 0 0 1023.7 1023.7 0.0
30/07:30pm 6.4 4.6 1.4 70 2.0 CALM 0 0 0 0 1023.5 1023.5 0.0
30/07:00pm 7.6 5.2 2.0 67 2.3 SW 4 7 2 4 1023.4 1023.4 0.0
30/06:30pm 9.4 6.6 2.0 60 3.1 SW 6 7 3 4 1023.2 1023.2 0.0
30/06:00pm 11.3 8.2 1.5 51 4.1 SW 7 9 4 5 1023.1 1023.1 0.0
30/05:30pm 14.9 11.6 -1.6 32 6.7 SSW 6 9 3 5 1022.8 1022.8 0.0
30/05:00pm 15.9 12.8 -2.9 27 7.5 SSE 4 11 2 6 1022.6 1022.6 0.0
30/04:30pm 16.0 12.0 -2.3 28 7.4 SSE 9 13 5 7 1022.5 1022.5 0.0
30/04:00pm 16.3 12.8 -1.7 29 7.4 WSW 7 11 4 6 1022.6 1022.6 0.0
30/03:30pm 16.5 13.0 -2.5 27 7.7 W 6 9 3 5 1022.9 1022.9 0.0
30/03:00pm 16.2 12.1 -3.2 26 7.7 WSW 9 13 5 7 1023.4 1023.4 0.0
30/02:30pm 16.2 11.9 -1.9 29 7.4 W 11 17 6 9 1023.5 1023.5 0.0
30/02:00pm 15.8 11.8 -1.9 29 7.2 SSW 9 13 5 7 1023.8 1023.8 0.0
30/01:30pm 15.6 12.0 -1.9 30 7.1 NW 7 11 4 6 1024.2 1024.2 0.0
30/01:00pm 15.3 11.3 -2.1 30 7.0 SSW 9 17 5 9 1024.5 1024.5 0.0
30/12:30pm 14.5 11.0 -1.6 33 6.5 N 7 11 4 6 1025.1 1025.1 0.0
30/12:00pm 13.8 9.5 -1.3 35 6.1 SSE 11 15 6 8 1025.6 1025.6 0.0
30/11:30am 13.9 10.7 -0.4 37 5.9 SE 6 11 3 6 1026.2 1026.2 0.0
30/11:00am 12.9 9.5 1.7 46 4.8 E 9 15 5 8 1026.7 1026.7 0.0
30/10:30am 12.0 9.3 2.8 53 4.0 S 6 11 3 6 1027.4 1027.4 0.0
30/10:00am 10.9 7.7 3.3 59 3.3 SE 9 13 5 7 1027.7 1027.7 0.0
30/09:30am 9.1 6.0 3.5 68 2.4 SE 9 13 5 7 1027.8 1027.8 0.0
30/09:00am 7.8 4.3 3.3 73 1.9 ESE 11 15 6 8 1027.9 1027.9 0.0
30/08:30am 6.3 2.7 3.2 80 1.3 ESE 11 15 6 8 1027.9 1027.9 0.0
30/08:00am 4.1 2.4 1.8 85 0.9 CALM 0 0 0 0 1027.9 1027.9 0.0
30/07:30am 1.9 0.0 0.8 92 0.4 CALM 0 0 0 0 1027.7 1027.7 0.0
30/07:00am 0.0 - - - - CALM 0 0 0 0 1027.5 1027.5 0.0
30/06:30am 0.1 - - - - CALM 0 0 0 0 1027.0 1027.0 0.0
30/06:00am 0.4 - - - - SSE 7 11 4 6 1026.5 1026.5 0.0
30/05:30am 0.1 - - - - SSE 2 7 1 4 1026.3 1026.3 0.0
30/05:00am 0.1 - - - - CALM 0 0 0 0 1026.2 1026.2 0.0
30/04:30am 0.4 - - - - CALM 0 0 0 0 1026.3 1026.3 0.0
30/04:00am 1.6 -1.3 -0.9 83 0.9 ESE 4 7 2 4 1026.4 1026.4 0.0
30/03:30am 2.6 -1.5 -0.1 82 1.0 SE 11 15 6 8 1026.3 1026.3 0.0
30/03:00am 3.5 -1.0 -0.3 76 1.4 SE 13 19 7 10 1026.4 1026.4 0.0
30/02:30am 3.8 -1.2 -0.9 71 1.7 SE 15 19 8 10 1026.6 1026.6 0.0
30/02:00am 3.5 -1.2 -1.9 68 1.9 SSE 13 17 7 9 1026.8 1026.8 0.0
30/01:30am 3.8 -1.2 -1.5 68 1.9 SE 15 17 8 9 1027.1 1027.1 0.0
30/01:00am 3.7 -1.1 -2.3 65 2.1 SE 13 17 7 9 1027.3 1027.3 0.0
30/12:30am 3.1 -2.1 -2.4 67 1.9 SSE 15 17 8 9 1027.4 1027.4 0.0
30/12:00am 3.6 -1.1 -2.1 66 2.0 SSE 13 17 7 9 1027.5 1027.5 0.0
 
Date/Time
CST
Temp
°C
App
Temp
°C
Dew
Point
Rel
Hum
%
Delta-T
°C
Wind Press
QNH
hPa
Press
MSL
hPa
Rain
since 9 am
mm
Dir
 
Spd
km/h
Gust
km/h
Spd
kts
Gust
kts
29/11:30pm 4.3 0.4 -1.5 66 2.1 S 9 13 5 7 1027.6 1027.6 0.0
29/11:00pm 4.4 0.2 -1.1 67 2.0 SSE 11 11 6 6 1027.5 1027.5 0.0
29/10:30pm 6.6 1.9 -1.5 56 3.0 S 13 15 7 8 1027.5 1027.5 0.0
29/10:00pm 6.4 2.2 -1.1 59 2.8 S 11 15 6 8 1027.5 1027.5 0.0
29/09:30pm 6.5 2.4 -0.3 62 2.6 S 11 13 6 7 1027.4 1027.4 0.0
29/09:00pm 6.7 2.9 -0.4 60 2.7 SSW 9 11 5 6 1027.3 1027.3 0.0
29/08:30pm 7.5 3.8 0.0 59 2.9 SSW 9 11 5 6 1027.3 1027.3 0.0
29/08:00pm 8.6 4.5 -0.1 54 3.4 S 11 13 6 7 1027.0 1027.0 0.0
29/07:30pm 9.2 5.2 0.5 54 3.5 S 11 13 6 7 1026.8 1026.8 0.0
29/07:00pm 9.6 6.1 1.0 55 3.5 S 9 13 5 7 1026.8 1026.8 0.0
29/06:30pm 11.0 7.6 1.7 52 3.9 S 9 11 5 6 1026.6 1026.6 0.0
29/06:00pm 11.9 9.0 2.7 53 4.0 SSW 7 9 4 5 1026.4 1026.4 0.0
29/05:30pm 12.6 9.3 2.5 50 4.4 SW 9 11 5 6 1026.2 1026.2 0.0
29/05:00pm 14.4 10.1 0.7 39 5.8 S 13 17 7 9 1025.8 1025.8 0.0
29/04:30pm 13.9 10.5 1.9 44 5.2 SSE 9 13 5 7 1025.8 1025.8 0.0
29/04:00pm 13.8 9.3 2.4 46 5.0 SSE 15 19 8 10 1025.8 1025.8 0.0
29/03:30pm 14.6 11.3 2.3 43 5.4 WSW 9 15 5 8 1025.9 1025.9 0.0
29/03:00pm 13.8 10.5 2.7 47 4.9 SSW 9 15 5 8 1026.1 1026.1 0.0
29/02:30pm 14.1 10.5 3.1 47 4.9 SSE 11 17 6 9 1026.2 1026.2 0.0
29/02:00pm 14.2 11.9 2.7 46 5.1 S 4 11 2 6 1026.5 1026.5 0.0
29/01:30pm 13.9 10.4 3.7 50 4.6 SW 11 15 6 8 1026.7 1026.7 0.0
29/01:00pm 12.9 9.8 3.4 52 4.2 SSE 9 13 5 7 1027.1 1027.1 0.0
29/12:30pm 12.7 9.0 2.6 50 4.4 SSW 11 15 6 8 1027.6 1027.6 0.0
29/12:00pm 12.1 8.9 3.2 54 3.9 ESE 9 15 5 8 1028.1 1028.1 0.0
29/11:30am 11.5 8.3 3.3 57 3.6 SSE 9 15 5 8 1028.7 1028.7 0.0
29/11:00am 10.9 7.8 3.6 60 3.2 E 9 17 5 9 1029.0 1029.0 0.0
29/10:30am 10.4 6.2 3.8 63 2.9 SE 15 22 8 12 1029.1 1029.1 0.0
29/10:00am 9.7 5.9 3.7 66 2.6 E 13 19 7 10 1029.1 1029.1 0.0
29/09:30am 9.1 4.6 4.0 70 2.2 E 17 24 9 13 1029.2 1029.2 0.0
29/09:00am 8.3 3.7 3.9 74 1.9 ESE 17 22 9 12 1029.0 1029.0 0.0
29/08:30am 6.6 3.4 5.0 89 0.7 ESE 11 13 6 7 1028.9 1028.9 0.0
29/08:00am 5.2 2.3 4.5 95 0.3 SE 9 13 5 7 1028.7 1028.7 0.0
29/07:30am 4.4 1.7 3.9 97 0.2 SE 7 11 4 6 1028.4 1028.4 0.0
29/07:00am 3.7 1.0 3.5 99 0.1 SE 7 13 4 7 1028.1 1028.1 0.0
29/06:30am 3.6 0.5 3.6 100 0.0 SSE 9 17 5 9 1027.7 1027.7 0.0
29/06:00am 4.0 1.3 3.8 99 0.1 SSE 7 11 4 6 1027.5 1027.5 0.0
29/05:30am 4.1 1.4 3.9 99 0.1 S 7 11 4 6 1027.4 1027.4 0.0
29/05:00am 3.5 0.7 3.0 97 0.2 SW 7 9 4 5 1027.3 1027.3 0.0
29/04:30am 3.4 0.6 2.9 97 0.2 WSW 7 9 4 5 1027.3 1027.3 0.0
29/04:00am 1.1 -0.8 0.3 94 0.3 CALM 0 0 0 0 1027.2 1027.2 0.0
29/03:30am 1.3 -0.7 0.2 92 0.4 CALM 0 0 0 0 1027.2 1027.2 0.0
29/03:00am 2.6 0.2 2.1 96 0.2 WSW 4 7 2 4 1027.3 1027.3 0.0
29/02:30am 3.1 0.1 2.3 94 0.3 SW 7 9 4 5 1027.5 1027.5 0.0
29/02:00am 3.2 0.4 1.9 91 0.5 SSW 6 7 3 4 1027.8 1027.8 0.0
29/01:30am 4.7 1.9 3.0 89 0.7 SSW 7 9 4 5 1027.9 1027.9 0.0
29/01:00am 5.1 1.9 2.9 86 0.9 S 9 11 5 6 1027.9 1027.9 0.0
29/12:30am 5.2 2.4 3.0 86 0.9 S 7 11 4 6 1027.8 1027.8 0.0
29/12:00am 5.5 2.2 2.5 81 1.2 SSW 9 11 5 6 1027.7 1027.7 0.0
 
Date/Time
CST
Temp
°C
App
Temp
°C
Dew
Point
Rel
Hum
%
Delta-T
°C
Wind Press
QNH
hPa
Press
MSL
hPa
Rain
since 9 am
mm
Dir
 
Spd
km/h
Gust
km/h
Spd
kts
Gust
kts
28/11:30pm 5.4 1.7 2.2 80 1.3 SSW 11 17 6 9 1027.7 1027.7 0.0
28/11:00pm 5.3 1.9 2.0 79 1.3 SSW 9 11 5 6 1027.8 1027.8 0.0
28/10:30pm 6.0 1.9 2.0 75 1.6 SW 13 15 7 8 1027.8 1027.8 0.0
28/10:00pm 6.2 2.1 2.0 74 1.7 SW 13 15 7 8 1027.9 1027.9 0.0
28/09:30pm 6.7 2.9 2.0 72 1.9 SW 11 15 6 8 1027.8 1027.8 0.0
28/09:00pm 7.8 3.7 2.2 68 2.3 SW 13 15 7 8 1027.7 1027.7 0.0
28/08:30pm 7.6 3.9 2.2 68 2.2 SW 11 15 6 8 1027.5 1027.5 0.0
28/08:00pm 9.6 5.5 2.5 61 3.0 SSW 13 19 7 10 1027.4 1027.4 0.0
28/07:30pm 9.7 5.2 2.3 60 3.1 SSW 15 19 8 10 1027.1 1027.1 0.0
28/07:00pm 10.4 5.5 2.1 56 3.5 SSW 17 20 9 11 1027.0 1027.0 0.0
28/06:30pm 11.6 6.7 1.9 51 4.1 SSW 17 22 9 12 1026.8 1026.8 0.0
28/06:00pm 12.3 8.5 2.0 49 4.4 SSW 11 19 6 10 1026.6 1026.6 0.0
28/05:30pm 13.6 8.7 2.1 45 5.0 SSW 17 24 9 13 1026.3 1026.3 0.0
28/05:00pm 15.1 10.1 1.2 39 6.0 SSW 17 22 9 12 1026.2 1026.2 0.0
28/04:30pm 15.2 10.1 0.7 37 6.2 SW 17 20 9 11 1026.0 1026.0 0.0
28/04:00pm 15.8 10.4 1.3 37 6.3 S 19 24 10 13 1025.9 1025.9 0.0
28/03:30pm 15.9 11.3 1.8 38 6.2 S 15 26 8 14 1026.0 1026.0 0.0
28/03:00pm 16.7 12.1 1.5 36 6.7 SW 15 22 8 12 1026.1 1026.1 0.0
28/02:30pm 15.1 10.5 1.8 40 5.8 SSW 15 22 8 12 1026.3 1026.3 0.0
28/02:00pm 15.3 11.2 2.2 41 5.8 SSW 13 22 7 12 1026.3 1026.3 0.0
28/01:30pm 15.3 11.3 2.8 43 5.6 SW 13 19 7 10 1026.6 1026.6 0.0
28/01:00pm 15.0 11.0 2.9 44 5.4 S 13 20 7 11 1027.0 1027.0 0.0
28/12:30pm 14.8 10.1 2.9 44 5.3 S 17 24 9 13 1027.4 1027.4 0.0
28/12:00pm 15.1 10.5 3.7 46 5.2 SSE 17 26 9 14 1027.9 1027.9 0.0
28/11:30am 14.2 9.7 4.1 50 4.6 SSE 17 26 9 14 1028.4 1028.4 0.0
28/11:00am 13.7 8.6 4.2 52 4.3 S 20 30 11 16 1028.8 1028.8 0.0
28/10:30am 13.8 9.6 5.7 58 3.8 SSE 17 24 9 13 1029.0 1029.0 0.0
28/10:00am 13.0 9.0 6.5 64 3.1 SSE 17 26 9 14 1029.4 1029.4 0.0
28/09:30am 11.6 7.7 7.0 73 2.2 SSE 17 22 9 12 1029.4 1029.4 0.0
28/09:00am 11.0 7.9 8.8 86 1.1 S 15 20 8 11 1029.3 1029.3 0.0
28/08:30am 8.9 5.3 6.7 86 1.0 S 15 20 8 11 1029.1 1029.1 0.0
28/08:00am 7.9 4.2 6.4 90 0.7 S 15 20 8 11 1028.8 1028.8 0.0
28/07:30am 6.5 3.4 5.6 94 0.4 S 11 15 6 8 1028.7 1028.7 0.0
28/07:00am 5.8 2.6 5.1 95 0.3 SSW 11 15 6 8 1028.2 1028.2 0.0
28/06:30am 5.3 2.8 4.8 97 0.2 SSW 7 9 4 5 1028.0 1028.0 0.0
28/06:00am 5.6 2.8 5.1 97 0.2 S 9 13 5 7 1027.6 1027.6 0.0
28/05:30am 5.8 3.0 5.1 95 0.3 SSW 9 13 5 7 1027.4 1027.4 0.0
28/05:00am 6.2 3.5 5.5 95 0.3 SSW 9 13 5 7 1027.2 1027.2 0.0
28/04:30am 6.8 3.8 6.1 95 0.3 SSW 11 17 6 9 1026.9 1026.9 0.0
28/04:00am 7.8 4.7 7.2 96 0.3 SSW 13 20 7 11 1026.8 1026.8 0.0
28/03:30am 7.6 4.4 6.9 95 0.3 SSW 13 19 7 10 1026.3 1026.3 0.0
28/03:00am 7.8 4.3 7.2 96 0.3 SSW 15 22 8 12 1026.4 1026.4 0.0
28/02:30am 7.6 4.7 6.7 94 0.4 SSW 11 15 6 8 1026.5 1026.5 0.0
28/02:00am 7.8 5.0 6.9 94 0.4 SSW 11 17 6 9 1026.4 1026.4 0.0
28/01:30am 8.1 5.0 7.2 94 0.4 SSW 13 19 7 10 1026.4 1026.4 0.0
28/01:00am 8.4 5.3 7.3 93 0.5 SSW 13 17 7 9 1026.6 1026.6 0.0
28/12:30am 8.4 5.3 7.3 93 0.5 SW 13 19 7 10 1026.6 1026.6 0.0
28/12:00am 8.1 4.6 7.0 93 0.5 SW 15 19 8 10 1026.7 1026.7 0.0
 
Date/Time
CST
Temp
°C
App
Temp
°C
Dew
Point
Rel
Hum
%
Delta-T
°C
Wind Press
QNH
hPa
Press
MSL
hPa
Rain
since 9 am
mm
Dir
 
Spd
km/h
Gust
km/h
Spd
kts
Gust
kts
27/11:30pm 8.5 5.0 7.0 90 0.7 SW 15 20 8 11 1026.7 1026.7 0.0
27/11:00pm 8.8 5.2 6.9 88 0.9 SW 15 20 8 11 1026.7 1026.7 0.0
27/10:30pm 9.1 5.1 6.7 85 1.1 SW 17 26 9 14 1026.7 1026.7 0.0
27/10:00pm 9.4 5.4 6.6 83 1.3 SW 17 24 9 13 1026.7 1026.7 0.0
27/09:30pm 9.8 5.8 6.6 80 1.5 SW 17 22 9 12 1026.6 1026.6 0.0

Other Formats:

Comma delimited format used in spreadsheet applications
http://www.bom.gov.au/fwo/IDS60801/IDS60801.94682.axf

JavaScript Object Notation format (JSON) in row-major order
http://www.bom.gov.au/fwo/IDS60801/IDS60801.94682.json